Weather History for St. Francis, KS

Change the Weather History Date:

Saturday, January 11, 2014

  Actual Average Record
Temperature  
Mean Temperature 41 °F -  
Max Temperature 52 °F 40 °F 58 °F (2013)
Min Temperature 30 °F 13 °F 18 °F (2013)
Degree Days  
Heating Degree Days 24    
Moisture  
Dew Point 20 °F    
Average Humidity 47    
Maximum Humidity 64    
Minimum Humidity 25    
Precipitation  
Precipitation 0.00 in - - ()
Sea Level Pressure  
Sea Level Pressure 29.84 in    
Wind  
Wind Speed 12 mph (WSW)    
Max Wind Speed 20 mph    
Max Gust Speed 25 mph    
Visibility 10 miles    
Events      
Averages and records for this station are not official NWS values.
T = Trace of Precipitation, MM = Missing Value Source: NWS Daily Summary

Daily Weather History Graph

Daily Weather History Graph

Search for Another Location

Airport:

Trip Planner

Search our weather history database for the weather conditions in past years. The results will help you decide how hot, cold, wet, or windy it might be!

Date:

Astronomy

Jan. 11, 2014 Rise Set
Actual Time 8:07 AM CST 5:42 PM CST
Civil Twilight 7:37 AM CST 6:12 PM CST
Nautical Twilight 7:04 AM CST 6:46 PM CST
Astronomical Twilight 6:31 AM CST 7:18 PM CST
Moon 2:28 PM CST (1/11) 4:14 AM CST (1/11)
Length of Visible Light 10h 34m
Length of Day
9h 35m
Waxing Gibbous, 83% of the Moon is Illuminated
Jan 11
Waxing Gibbous
Jan 15
Full
Jan 23
Last Quarter
Jan 30
New
Feb 6
First Quarter

Hourly Weather History & Observations

Time (CST) Temp. Windchill Dew Point Humidity Pressure Visibility Wind Dir Wind Speed Gust Speed Precip Events Conditions
12:15 AM 33.8 °F 23.9 °F 21.0 °F 60% 29.81 in 10.0 mi WNW 15.0 mph - N/A   Overcast
12:35 AM 35.1 °F 26.4 °F 20.3 °F 55% 29.81 in 10.0 mi WNW 12.7 mph - N/A   Overcast
12:55 AM 34.7 °F 25.5 °F 20.3 °F 56% 29.81 in 10.0 mi WNW 13.8 mph - N/A   Overcast
1:15 AM 34.0 °F 25.5 °F 19.9 °F 56% 29.81 in 10.0 mi West 11.5 mph - N/A   Mostly Cloudy
1:35 AM 32.2 °F 22.7 °F 19.9 °F 61% 29.82 in 10.0 mi West 12.7 mph - N/A   Mostly Cloudy
1:55 AM 31.8 °F 21.8 °F 19.8 °F 61% 29.82 in 10.0 mi West 13.8 mph 18.4 mph N/A   Scattered Clouds
2:15 AM 30.9 °F 20.2 °F 19.4 °F 62% 29.83 in 10.0 mi West 15.0 mph - N/A   Clear
2:35 AM 32.0 °F 22.5 °F 20.1 °F 62% 29.84 in 10.0 mi WNW 12.7 mph 19.6 mph N/A   Clear
2:55 AM 32.4 °F 23.5 °F 20.7 °F 62% 29.85 in 10.0 mi WNW 11.5 mph - N/A   Clear
3:15 AM 32.9 °F 23.2 °F 21.0 °F 62% 29.86 in 10.0 mi WNW 13.8 mph - N/A   Clear
3:35 AM 34.0 °F 25.5 °F 21.2 °F 60% 29.87 in 10.0 mi West 11.5 mph - N/A   Mostly Cloudy
3:55 AM 33.6 °F 25.0 °F 21.2 °F 60% 29.88 in 10.0 mi West 11.5 mph - N/A   Overcast
4:15 AM 32.0 °F 23.6 °F 21.2 °F 64% 29.88 in 10.0 mi West 10.4 mph - N/A   Scattered Clouds
4:35 AM 32.2 °F 22.7 °F 20.7 °F 63% 29.88 in 10.0 mi WNW 12.7 mph - N/A   Clear
4:55 AM 32.0 °F 22.5 °F 20.3 °F 62% 29.89 in 10.0 mi WNW 12.7 mph - N/A   Clear
5:15 AM 32.2 °F 22.7 °F 20.3 °F 62% 29.89 in 10.0 mi WNW 12.7 mph - N/A   Clear
5:35 AM 32.0 °F 22.5 °F 20.3 °F 62% 29.90 in 10.0 mi WNW 12.7 mph - N/A   Scattered Clouds
5:55 AM 32.0 °F 22.5 °F 20.3 °F 62% 29.91 in 10.0 mi WNW 12.7 mph - N/A   Scattered Clouds
6:15 AM 32.0 °F 23.0 °F 20.7 °F 63% 29.92 in 10.0 mi WNW 11.5 mph - N/A   Mostly Cloudy
6:35 AM 34.2 °F 25.2 °F 21.0 °F 59% 29.92 in 10.0 mi NW 12.7 mph 18.4 mph N/A   Overcast
6:55 AM 35.6 °F 26.6 °F 20.1 °F 53% 29.92 in 10.0 mi NW 13.8 mph 19.6 mph N/A   Mostly Cloudy
7:15 AM 35.6 °F 27.1 °F 19.4 °F 52% 29.93 in 10.0 mi NW 12.7 mph - N/A   Scattered Clouds
7:35 AM 35.4 °F 26.8 °F 19.0 °F 51% 29.93 in 10.0 mi NNW 12.7 mph 18.4 mph N/A   Clear
7:55 AM 34.7 °F 26.4 °F 18.5 °F 52% 29.93 in 10.0 mi NNW 11.5 mph 17.3 mph N/A   Clear
8:15 AM 34.7 °F 26.4 °F 18.5 °F 52% 29.93 in 10.0 mi NNW 11.5 mph 17.3 mph N/A   Clear
8:35 AM 34.5 °F 26.2 °F 18.9 °F 53% 29.92 in 10.0 mi NNW 11.5 mph - N/A   Clear
8:55 AM 35.4 °F 29.0 °F 19.2 °F 52% 29.93 in 10.0 mi NNW 8.1 mph - N/A   Scattered Clouds
9:15 AM 34.7 °F 26.9 °F 20.3 °F 56% 29.95 in 10.0 mi SW 10.4 mph - N/A   Scattered Clouds
9:35 AM 36.7 °F 30.5 °F 19.9 °F 51% 29.96 in 10.0 mi West 8.1 mph - N/A   Clear
9:55 AM 39.0 °F 31.4 °F 19.8 °F 46% 29.96 in 10.0 mi West 12.7 mph - N/A   Clear
10:15 AM 42.3 °F 35.9 °F 18.7 °F 39% 29.96 in 10.0 mi NW 11.5 mph - N/A   Clear
10:35 AM 42.3 °F 36.8 °F 19.2 °F 40% 29.97 in 10.0 mi West 9.2 mph - N/A   Clear
10:55 AM 43.5 °F 37.9 °F 19.6 °F 38% 29.98 in 10.0 mi West 10.4 mph 16.1 mph N/A   Clear
11:15 AM 44.6 °F 38.8 °F 19.8 °F 37% 29.98 in 10.0 mi West 11.5 mph - N/A   Clear
11:35 AM 45.7 °F 40.6 °F 18.5 °F 34% 29.97 in 10.0 mi West 10.4 mph - N/A   Clear
11:55 AM 46.8 °F - 17.4 °F 31% 29.96 in 10.0 mi West 10.4 mph - N/A   Clear
12:15 PM 47.5 °F - 17.1 °F 30% 29.94 in 10.0 mi West 8.1 mph - N/A   Clear
12:35 PM 48.0 °F - 16.5 °F 29% 29.93 in 10.0 mi WSW 9.2 mph - N/A   Clear
12:55 PM 48.7 °F - 17.2 °F 29% 29.92 in 10.0 mi WSW 9.2 mph - N/A   Clear
1:15 PM 49.6 °F - 18.0 °F 29% 29.91 in 10.0 mi WSW 11.5 mph 16.1 mph N/A   Clear
1:35 PM 49.3 °F - 18.1 °F 29% 29.90 in 10.0 mi WSW 11.5 mph - N/A   Clear
1:55 PM 49.8 °F - 18.1 °F 29% 29.88 in 10.0 mi SW 8.1 mph - N/A   Clear
2:15 PM 50.0 °F - 17.8 °F 28% 29.88 in 10.0 mi SSW 9.2 mph - N/A   Clear
2:35 PM 50.4 °F - 18.1 °F 28% 29.87 in 10.0 mi SW 12.7 mph - N/A   Clear
2:55 PM 50.9 °F - 18.0 °F 27% 29.85 in 10.0 mi SW 17.3 mph 20.7 mph N/A   Clear
3:15 PM 51.4 °F - 17.8 °F 26% 29.84 in 10.0 mi SW 16.1 mph - N/A   Clear
3:35 PM 52.2 °F - 17.6 °F 26% 29.83 in 10.0 mi SSW 18.4 mph 24.2 mph N/A   Clear
3:55 PM 51.8 °F - 16.5 °F 25% 29.83 in 10.0 mi SW 18.4 mph 25.3 mph N/A   Clear
4:15 PM 51.6 °F - 17.2 °F 26% 29.82 in 10.0 mi SSW 19.6 mph 25.3 mph N/A   Clear
4:35 PM 50.9 °F - 18.1 °F 27% 29.82 in 10.0 mi SSW 17.3 mph - N/A   Clear
4:55 PM 50.2 °F - 18.5 °F 29% 29.81 in 10.0 mi SSW 15.0 mph - N/A   Clear
5:15 PM 47.8 °F - 18.1 °F 31% 29.81 in 10.0 mi SSW 13.8 mph - N/A   Clear
5:35 PM 45.0 °F 38.5 °F 19.4 °F 36% 29.79 in 10.0 mi SSW 13.8 mph - N/A   Clear
5:55 PM 43.0 °F 36.4 °F 19.8 °F 40% 29.79 in 10.0 mi SSW 12.7 mph - N/A   Clear
6:15 PM 39.2 °F 35.0 °F 20.5 °F 47% 29.79 in 10.0 mi SSW 5.8 mph - N/A   Clear
6:35 PM 35.4 °F 28.4 °F 21.0 °F 56% 29.77 in 10.0 mi SSW 9.2 mph - N/A   Clear
6:55 PM 36.5 °F 30.3 °F 21.6 °F 55% 29.77 in 10.0 mi SW 8.1 mph - N/A   Clear
7:15 PM 36.9 °F 31.4 °F 22.1 °F 55% 29.77 in 10.0 mi WSW 6.9 mph - N/A   Clear
7:35 PM 36.0 °F 29.0 °F 22.1 °F 57% 29.76 in 10.0 mi SSW 9.2 mph - N/A   Clear
7:55 PM 36.3 °F 28.9 °F 22.5 °F 57% 29.75 in 10.0 mi SW 10.4 mph - N/A   Clear
8:15 PM 37.6 °F 29.6 °F 22.1 °F 54% 29.73 in 10.0 mi SW 12.7 mph - N/A   Clear
8:35 PM 37.8 °F 31.3 °F 21.7 °F 53% 29.73 in 10.0 mi WSW 9.2 mph - N/A   Clear
8:55 PM 35.6 °F 28.0 °F 22.1 °F 58% 29.72 in 10.0 mi SW 10.4 mph - N/A   Clear
9:15 PM 38.3 °F 30.1 °F 21.6 °F 51% 29.71 in 10.0 mi SW 13.8 mph - N/A   Clear
9:35 PM 38.7 °F 31.4 °F 21.2 °F 50% 29.71 in 10.0 mi SW 11.5 mph - N/A   Clear
9:55 PM 38.1 °F 31.2 °F 21.0 °F 50% 29.70 in 10.0 mi SW 10.4 mph - N/A   Clear
10:15 PM 36.1 °F 28.2 °F 21.6 °F 56% 29.68 in 10.0 mi SW 11.5 mph - N/A   Clear
10:35 PM 36.7 °F 28.0 °F 21.6 °F 54% 29.67 in 10.0 mi SSW 13.8 mph - N/A   Clear
10:55 PM 39.4 °F 31.8 °F 21.2 °F 48% 29.66 in 10.0 mi SSW 12.7 mph - N/A   Clear
11:15 PM 41.9 °F 35.4 °F 20.8 °F 43% 29.66 in 10.0 mi SW 11.5 mph - N/A   Clear
11:35 PM 40.6 °F 34.3 °F 21.2 °F 46% 29.65 in 10.0 mi SW 10.4 mph - N/A   Clear
11:55 PM 40.3 °F 34.4 °F 22.1 °F 48% 29.63 in 10.0 mi SW 9.2 mph - N/A   Clear